sensor_id;sensor_type;location;lat;lon;timestamp;pressure;altitude;pressure_sealevel;temperature;humidity
19210;BME280;9738;51.654;14.238;2022-12-11T00:02:03;99924.13;;;-1.38;100.00
19210;BME280;9738;51.654;14.238;2022-12-11T00:04:30;99915.22;;;-1.36;100.00
19210;BME280;9738;51.654;14.238;2022-12-11T00:06:56;99915.34;;;-1.37;100.00
19210;BME280;9738;51.654;14.238;2022-12-11T00:09:22;99915.34;;;-1.37;100.00
19210;BME280;9738;51.654;14.238;2022-12-11T00:11:48;99908.41;;;-1.38;100.00
19210;BME280;9738;51.654;14.238;2022-12-11T00:14:14;99906.72;;;-1.39;100.00
19210;BME280;9738;51.654;14.238;2022-12-11T00:16:41;99917.22;;;-1.39;100.00
19210;BME280;9738;51.654;14.238;2022-12-11T00:19:07;99919.72;;;-1.38;100.00
19210;BME280;9738;51.654;14.238;2022-12-11T00:21:33;99915.34;;;-1.37;100.00
19210;BME280;9738;51.654;14.238;2022-12-11T00:23:59;99920.56;;;-1.37;100.00
19210;BME280;9738;51.654;14.238;2022-12-11T00:26:25;99922.25;;;-1.36;100.00
19210;BME280;9738;51.654;14.238;2022-12-11T00:28:53;99926.56;;;-1.35;100.00
19210;BME280;9738;51.654;14.238;2022-12-11T00:31:21;99921.41;;;-1.37;100.00
19210;BME280;9738;51.654;14.238;2022-12-11T00:33:48;99916.91;;;-1.34;100.00
19210;BME280;9738;51.654;14.238;2022-12-11T00:36:17;99924.78;;;-1.34;100.00
19210;BME280;9738;51.654;14.238;2022-12-11T00:38:44;99930.78;;;-1.32;100.00
19210;BME280;9738;51.654;14.238;2022-12-11T00:41:10;99930.84;;;-1.34;100.00
19210;BME280;9738;51.654;14.238;2022-12-11T00:43:36;99931.03;;;-1.37;100.00
19210;BME280;9738;51.654;14.238;2022-12-11T00:46:03;99928.53;;;-1.39;100.00
19210;BME280;9738;51.654;14.238;2022-12-11T00:48:28;99927.75;;;-1.41;100.00
19210;BME280;9738;51.654;14.238;2022-12-11T00:50:54;99926.16;;;-1.43;100.00
19210;BME280;9738;51.654;14.238;2022-12-11T00:53:20;99927.84;;;-1.42;100.00
19210;BME280;9738;51.654;14.238;2022-12-11T00:55:46;99917.47;;;-1.44;100.00
19210;BME280;9738;51.654;14.238;2022-12-11T00:58:12;99922.78;;;-1.45;100.00
19210;BME280;9738;51.654;14.238;2022-12-11T01:00:39;99923.72;;;-1.46;100.00
19210;BME280;9738;51.654;14.238;2022-12-11T01:03:05;99919.50;;;-1.49;100.00
19210;BME280;9738;51.654;14.238;2022-12-11T01:05:31;99924.72;;;-1.49;100.00
19210;BME280;9738;51.654;14.238;2022-12-11T01:07:58;99921.19;;;-1.48;100.00
19210;BME280;9738;51.654;14.238;2022-12-11T01:10:24;99928.09;;;-1.47;100.00
19210;BME280;9738;51.654;14.238;2022-12-11T01:13:05;99925.47;;;-1.47;100.00
19210;BME280;9738;51.654;14.238;2022-12-11T01:15:37;99922.22;;;-1.50;100.00
19210;BME280;9738;51.654;14.238;2022-12-11T01:18:03;99927.53;;;-1.52;100.00
19210;BME280;9738;51.654;14.238;2022-12-11T01:20:29;99934.56;;;-1.52;100.00
19210;BME280;9738;51.654;14.238;2022-12-11T01:22:58;99928.38;;;-1.51;100.00
19210;BME280;9738;51.654;14.238;2022-12-11T01:25:24;99926.75;;;-1.54;100.00
19210;BME280;9738;51.654;14.238;2022-12-11T01:27:51;99924.97;;;-1.53;100.00
19210;BME280;9738;51.654;14.238;2022-12-11T01:30:19;99921.63;;;-1.55;100.00
19210;BME280;9738;51.654;14.238;2022-12-11T01:32:45;99927.03;;;-1.58;100.00
19210;BME280;9738;51.654;14.238;2022-12-11T01:35:11;99921.03;;;-1.60;100.00
19210;BME280;9738;51.654;14.238;2022-12-11T01:37:38;99917.41;;;-1.58;100.00
19210;BME280;9738;51.654;14.238;2022-12-11T01:40:05;99914.69;;;-1.56;100.00
19210;BME280;9738;51.654;14.238;2022-12-11T01:42:32;99920.03;;;-1.58;100.00
19210;BME280;9738;51.654;14.238;2022-12-11T01:45:26;99912.19;;;-1.58;100.00
19210;BME280;9738;51.654;14.238;2022-12-11T01:48:00;99912.19;;;-1.58;100.00
19210;BME280;9738;51.654;14.238;2022-12-11T01:50:29;99909.63;;;-1.59;100.00
19210;BME280;9738;51.654;14.238;2022-12-11T01:52:57;99901.69;;;-1.58;100.00
19210;BME280;9738;51.654;14.238;2022-12-11T01:55:23;99910.50;;;-1.59;100.00
19210;BME280;9738;51.654;14.238;2022-12-11T01:57:50;99902.63;;;-1.59;100.00
19210;BME280;9738;51.654;14.238;2022-12-11T02:00:17;99913.84;;;-1.57;100.00
19210;BME280;9738;51.654;14.238;2022-12-11T02:02:43;99905.31;;;-1.60;100.00
19210;BME280;9738;51.654;14.238;2022-12-11T02:05:10;99902.78;;;-1.62;100.00
19210;BME280;9738;51.654;14.238;2022-12-11T02:07:39;99907.34;;;-1.66;100.00
19210;BME280;9738;51.654;14.238;2022-12-11T02:10:06;99904.66;;;-1.64;100.00
19210;BME280;9738;51.654;14.238;2022-12-11T02:12:53;99909.81;;;-1.63;100.00
19210;BME280;9738;51.654;14.238;2022-12-11T02:15:38;99913.19;;;-1.60;100.00
19210;BME280;9738;51.654;14.238;2022-12-11T02:18:29;99905.41;;;-1.62;100.00
19210;BME280;9738;51.654;14.238;2022-12-11T02:21:12;99899.50;;;-1.66;100.00
19210;BME280;9738;51.654;14.238;2022-12-11T02:29:13;99905.13;;;-1.72;100.00
19210;BME280;9738;51.654;14.238;2022-12-11T02:31:59;99905.16;;;-1.73;100.00
19210;BME280;9738;51.654;14.238;2022-12-11T02:34:32;99901.56;;;-1.71;100.00
19210;BME280;9738;51.654;14.238;2022-12-11T02:37:03;99894.63;;;-1.72;100.00
19210;BME280;9738;51.654;14.238;2022-12-11T02:39:33;99888.53;;;-1.72;100.00
19210;BME280;9738;51.654;14.238;2022-12-11T02:42:01;99893.69;;;-1.71;100.00
19210;BME280;9738;51.654;14.238;2022-12-11T02:44:32;99891.94;;;-1.70;100.00
19210;BME280;9738;51.654;14.238;2022-12-11T02:46:59;99891.00;;;-1.69;100.00
19210;BME280;9738;51.654;14.238;2022-12-11T02:49:27;99898.94;;;-1.71;100.00
19210;BME280;9738;51.654;14.238;2022-12-11T02:51:55;99898.94;;;-1.71;100.00
19210;BME280;9738;51.654;14.238;2022-12-11T02:54:26;99895.81;;;-1.77;100.00
19210;BME280;9738;51.654;14.238;2022-12-11T02:57:19;99893.38;;;-1.80;100.00
19210;BME280;9738;51.654;14.238;2022-12-11T02:59:48;99894.41;;;-1.83;100.00
19210;BME280;9738;51.654;14.238;2022-12-11T03:02:15;99892.44;;;-1.79;100.00
19210;BME280;9738;51.654;14.238;2022-12-11T03:04:44;99887.88;;;-1.76;100.00
19210;BME280;9738;51.654;14.238;2022-12-11T03:07:13;99887.78;;;-1.74;100.00
19210;BME280;9738;51.654;14.238;2022-12-11T03:09:42;99884.22;;;-1.73;100.00
19210;BME280;9738;51.654;14.238;2022-12-11T03:12:11;99882.44;;;-1.73;100.00
19210;BME280;9738;51.654;14.238;2022-12-11T03:14:39;99889.41;;;-1.72;100.00
19210;BME280;9738;51.654;14.238;2022-12-11T03:17:18;99891.25;;;-1.74;100.00
19210;BME280;9738;51.654;14.238;2022-12-11T03:22:38;99896.66;;;-1.77;100.00
19210;BME280;9738;51.654;14.238;2022-12-11T03:25:12;99898.34;;;-1.76;100.00
19210;BME280;9738;51.654;14.238;2022-12-11T03:28:10;99896.66;;;-1.77;100.00
19210;BME280;9738;51.654;14.238;2022-12-11T03:30:38;99888.03;;;-1.79;100.00
19210;BME280;9738;51.654;14.238;2022-12-11T03:33:15;99895.97;;;-1.80;100.00
19210;BME280;9738;51.654;14.238;2022-12-11T03:35:48;99895.13;;;-1.81;100.00
19210;BME280;9738;51.654;14.238;2022-12-11T03:38:27;99901.13;;;-1.79;100.00
19210;BME280;9738;51.654;14.238;2022-12-11T03:40:58;99900.22;;;-1.78;100.00
19210;BME280;9738;51.654;14.238;2022-12-11T03:43:28;99901.91;;;-1.77;100.00
19210;BME280;9738;51.654;14.238;2022-12-11T03:45:55;99901.91;;;-1.77;100.00
19210;BME280;9738;51.654;14.238;2022-12-11T03:48:26;99908.91;;;-1.77;100.00
19210;BME280;9738;51.654;14.238;2022-12-11T03:50:53;99913.31;;;-1.78;100.00
19210;BME280;9738;51.654;14.238;2022-12-11T03:53:20;99906.28;;;-1.77;100.00
19210;BME280;9738;51.654;14.238;2022-12-11T03:55:48;99902.91;;;-1.79;100.00
19210;BME280;9738;51.654;14.238;2022-12-11T03:58:14;99899.63;;;-1.83;100.00
19210;BME280;9738;51.654;14.238;2022-12-11T04:00:40;99904.88;;;-1.83;100.00
19210;BME280;9738;51.654;14.238;2022-12-11T04:03:06;99895.31;;;-1.84;100.00
19210;BME280;9738;51.654;14.238;2022-12-11T04:05:39;99903.19;;;-1.84;100.00
19210;BME280;9738;51.654;14.238;2022-12-11T04:08:05;99895.31;;;-1.84;100.00
19210;BME280;9738;51.654;14.238;2022-12-11T04:10:31;99905.78;;;-1.84;100.00
19210;BME280;9738;51.654;14.238;2022-12-11T04:12:57;99906.78;;;-1.86;100.00
19210;BME280;9738;51.654;14.238;2022-12-11T04:15:23;99905.78;;;-1.84;100.00
19210;BME280;9738;51.654;14.238;2022-12-11T04:17:49;99909.16;;;-1.82;100.00
19210;BME280;9738;51.654;14.238;2022-12-11T04:20:34;99909.31;;;-1.85;100.00
19210;BME280;9738;51.654;14.238;2022-12-11T04:23:19;99897.84;;;-1.82;100.00
19210;BME280;9738;51.654;14.238;2022-12-11T04:26:12;99889.31;;;-1.86;100.00
19210;BME280;9738;51.654;14.238;2022-12-11T04:28:40;99891.00;;;-1.85;100.00
19210;BME280;9738;51.654;14.238;2022-12-11T04:31:25;99888.47;;;-1.86;100.00
19210;BME280;9738;51.654;14.238;2022-12-11T04:33:51;99891.94;;;-1.86;100.00
19210;BME280;9738;51.654;14.238;2022-12-11T04:36:18;99893.72;;;-1.86;100.00
19210;BME280;9738;51.654;14.238;2022-12-11T04:38:44;99891.88;;;-1.84;100.00
19210;BME280;9738;51.654;14.238;2022-12-11T04:41:12;99893.63;;;-1.85;100.00
19210;BME280;9738;51.654;14.238;2022-12-11T04:43:39;99891.88;;;-1.84;100.00
19210;BME280;9738;51.654;14.238;2022-12-11T04:46:08;99886.69;;;-1.86;100.00
19210;BME280;9738;51.654;14.238;2022-12-11T04:48:34;99883.25;;;-1.86;100.00
19210;BME280;9738;51.654;14.238;2022-12-11T04:51:01;99878.00;;;-1.86;100.00
19210;BME280;9738;51.654;14.238;2022-12-11T04:53:27;99881.66;;;-1.89;100.00
19210;BME280;9738;51.654;14.238;2022-12-11T04:55:53;99873.88;;;-1.91;100.00
19210;BME280;9738;51.654;14.238;2022-12-11T04:58:21;99883.88;;;-1.97;100.00
19210;BME280;9738;51.654;14.238;2022-12-11T05:00:46;99874.47;;;-2.01;100.00
19210;BME280;9738;51.654;14.238;2022-12-11T05:03:13;99881.50;;;-2.02;100.00
19210;BME280;9738;51.654;14.238;2022-12-11T05:05:40;99880.47;;;-1.99;100.00
19210;BME280;9738;51.654;14.238;2022-12-11T05:08:06;99873.41;;;-1.97;100.00
19210;BME280;9738;51.654;14.238;2022-12-11T05:10:32;99865.34;;;-1.94;100.00
19210;BME280;9738;51.654;14.238;2022-12-11T05:12:59;99861.22;;;-1.98;100.00
19210;BME280;9738;51.654;14.238;2022-12-11T05:15:24;99872.81;;;-2.02;100.00
19210;BME280;9738;51.654;14.238;2022-12-11T05:17:50;99863.28;;;-2.03;100.00
19210;BME280;9738;51.654;14.238;2022-12-11T05:20:17;99872.88;;;-2.04;100.00
19210;BME280;9738;51.654;14.238;2022-12-11T05:22:42;99868.84;;;-2.09;100.00
19210;BME280;9738;51.654;14.238;2022-12-11T05:25:08;99869.00;;;-2.12;100.00
19210;BME280;9738;51.654;14.238;2022-12-11T05:27:36;99865.44;;;-2.11;100.00
19210;BME280;9738;51.654;14.238;2022-12-11T05:30:03;99859.47;;;-2.13;100.00
19210;BME280;9738;51.654;14.238;2022-12-11T05:32:29;99863.94;;;-2.15;100.00
19210;BME280;9738;51.654;14.238;2022-12-11T05:34:55;99861.34;;;-2.15;100.00
19210;BME280;9738;51.654;14.238;2022-12-11T05:37:21;99863.00;;;-2.14;100.00
19210;BME280;9738;51.654;14.238;2022-12-11T05:39:47;99858.53;;;-2.12;100.00
19210;BME280;9738;51.654;14.238;2022-12-11T05:42:13;99849.00;;;-2.13;100.00
19210;BME280;9738;51.654;14.238;2022-12-11T05:44:39;99848.06;;;-2.12;100.00
19210;BME280;9738;51.654;14.238;2022-12-11T05:47:04;99856.84;;;-2.13;100.00
19210;BME280;9738;51.654;14.238;2022-12-11T05:49:31;99848.16;;;-2.14;100.00
19210;BME280;9738;51.654;14.238;2022-12-11T05:51:57;99849.00;;;-2.13;100.00
19210;BME280;9738;51.654;14.238;2022-12-11T05:54:22;99845.78;;;-2.19;100.00
19210;BME280;9738;51.654;14.238;2022-12-11T05:56:49;99848.59;;;-2.22;100.00
19210;BME280;9738;51.654;14.238;2022-12-11T05:59:16;99844.44;;;-2.26;100.00
19210;BME280;9738;51.654;14.238;2022-12-11T06:01:43;99848.94;;;-2.28;100.00
19210;BME280;9738;51.654;14.238;2022-12-11T06:04:10;99850.75;;;-2.30;100.00
19210;BME280;9738;51.654;14.238;2022-12-11T06:06:38;99850.00;;;-2.32;100.00
19210;BME280;9738;51.654;14.238;2022-12-11T06:09:05;99851.03;;;-2.34;100.00
19210;BME280;9738;51.654;14.238;2022-12-11T06:11:33;99851.97;;;-2.35;100.00
19210;BME280;9738;51.654;14.238;2022-12-11T06:14:00;99851.09;;;-2.36;100.00
19210;BME280;9738;51.654;14.238;2022-12-11T06:16:26;99845.88;;;-2.36;100.00
19210;BME280;9738;51.654;14.238;2022-12-11T06:18:53;99845.03;;;-2.36;100.00
19210;BME280;9738;51.654;14.238;2022-12-11T06:21:25;99847.59;;;-2.35;100.00
19210;BME280;9738;51.654;14.238;2022-12-11T06:23:53;99849.28;;;-2.34;100.00
19210;BME280;9738;51.654;14.238;2022-12-11T06:26:20;99853.72;;;-2.36;100.00
19210;BME280;9738;51.654;14.238;2022-12-11T06:28:46;99858.28;;;-2.39;100.00
19210;BME280;9738;51.654;14.238;2022-12-11T06:31:12;99861.75;;;-2.39;100.00
19210;BME280;9738;51.654;14.238;2022-12-11T06:33:39;99855.75;;;-2.41;100.00
19210;BME280;9738;51.654;14.238;2022-12-11T06:36:12;99857.78;;;-2.46;100.00
19210;BME280;9738;51.654;14.238;2022-12-11T06:38:38;99863.25;;;-2.51;100.00
19210;BME280;9738;51.654;14.238;2022-12-11T06:41:05;99860.72;;;-2.52;100.00
19210;BME280;9738;51.654;14.238;2022-12-11T06:43:32;99865.88;;;-2.51;100.00
19210;BME280;9738;51.654;14.238;2022-12-11T06:46:03;99865.94;;;-2.52;100.00
19210;BME280;9738;51.654;14.238;2022-12-11T06:48:30;99865.94;;;-2.52;100.00
19210;BME280;9738;51.654;14.238;2022-12-11T06:50:55;99863.34;;;-2.52;100.00
19210;BME280;9738;51.654;14.238;2022-12-11T06:53:22;99859.03;;;-2.53;100.00
19210;BME280;9738;51.654;14.238;2022-12-11T06:55:48;99864.41;;;-2.56;100.00
19210;BME280;9738;51.654;14.238;2022-12-11T06:58:14;99856.56;;;-2.56;100.00
19210;BME280;9738;51.654;14.238;2022-12-11T07:00:41;99864.41;;;-2.56;100.00
19210;BME280;9738;51.654;14.238;2022-12-11T07:03:06;99863.56;;;-2.57;100.00
19210;BME280;9738;51.654;14.238;2022-12-11T07:05:32;99865.19;;;-2.54;100.00
19210;BME280;9738;51.654;14.238;2022-12-11T07:07:59;99865.13;;;-2.53;100.00
19210;BME280;9738;51.654;14.238;2022-12-11T07:10:24;99853.81;;;-2.53;100.00
19210;BME280;9738;51.654;14.238;2022-12-11T07:12:53;99858.19;;;-2.54;100.00
19210;BME280;9738;51.654;14.238;2022-12-11T07:15:20;99857.41;;;-2.56;100.00
19210;BME280;9738;51.654;14.238;2022-12-11T07:17:46;99858.44;;;-2.58;100.00
19210;BME280;9738;51.654;14.238;2022-12-11T07:20:11;99850.59;;;-2.58;100.00
19210;BME280;9738;51.654;14.238;2022-12-11T07:22:38;99853.31;;;-2.60;100.00
19210;BME280;9738;51.654;14.238;2022-12-11T07:25:04;99861.19;;;-2.61;100.00
19210;BME280;9738;51.654;14.238;2022-12-11T07:27:29;99859.53;;;-2.62;100.00
19210;BME280;9738;51.654;14.238;2022-12-11T07:29:56;99863.75;;;-2.60;100.00
19210;BME280;9738;51.654;14.238;2022-12-11T07:32:22;99868.16;;;-2.60;100.00
19210;BME280;9738;51.654;14.238;2022-12-11T07:34:48;99871.41;;;-2.57;100.00
19210;BME280;9738;51.654;14.238;2022-12-11T07:37:14;99870.44;;;-2.54;100.00
19210;BME280;9738;51.654;14.238;2022-12-11T07:39:40;99874.88;;;-2.56;100.00
19210;BME280;9738;51.654;14.238;2022-12-11T07:42:06;99870.56;;;-2.57;100.00
19210;BME280;9738;51.654;14.238;2022-12-11T07:44:32;99871.19;;;-2.52;100.00
19210;BME280;9738;51.654;14.238;2022-12-11T07:46:58;99883.19;;;-2.48;100.00
19210;BME280;9738;51.654;14.238;2022-12-11T07:49:23;99879.53;;;-2.46;100.00
19210;BME280;9738;51.654;14.238;2022-12-11T07:51:50;99887.19;;;-2.42;100.00
19210;BME280;9738;51.654;14.238;2022-12-11T07:54:15;99883.84;;;-2.45;100.00
19210;BME280;9738;51.654;14.238;2022-12-11T07:56:42;99884.59;;;-2.42;100.00
19210;BME280;9738;51.654;14.238;2022-12-11T07:59:10;99887.16;;;-2.41;100.00
19210;BME280;9738;51.654;14.238;2022-12-11T08:01:36;99883.41;;;-2.37;100.00
19210;BME280;9738;51.654;14.238;2022-12-11T08:04:04;99879.28;;;-2.41;100.00
19210;BME280;9738;51.654;14.238;2022-12-11T08:06:33;99887.28;;;-2.44;100.00
19210;BME280;9738;51.654;14.238;2022-12-11T08:09:01;99890.00;;;-2.46;100.00
19210;BME280;9738;51.654;14.238;2022-12-11T08:11:27;99891.69;;;-2.45;100.00
19210;BME280;9738;51.654;14.238;2022-12-11T08:13:54;99889.75;;;-2.41;100.00
19210;BME280;9738;51.654;14.238;2022-12-11T08:16:19;99897.50;;;-2.39;100.00
19210;BME280;9738;51.654;14.238;2022-12-11T08:18:46;99895.00;;;-2.41;100.00
19210;BME280;9738;51.654;14.238;2022-12-11T08:21:18;99898.34;;;-2.39;100.00
19210;BME280;9738;51.654;14.238;2022-12-11T08:23:44;99900.03;;;-2.38;100.00
19210;BME280;9738;51.654;14.238;2022-12-11T08:26:26;99893.22;;;-2.40;100.00
19210;BME280;9738;51.654;14.238;2022-12-11T08:28:53;99901.06;;;-2.40;100.00
19210;BME280;9738;51.654;14.238;2022-12-11T08:31:19;99892.28;;;-2.39;100.00
19210;BME280;9738;51.654;14.238;2022-12-11T08:33:46;99890.41;;;-2.37;100.00
19210;BME280;9738;51.654;14.238;2022-12-11T08:36:15;99880.66;;;-2.34;100.00
19210;BME280;9738;51.654;14.238;2022-12-11T08:38:41;99883.19;;;-2.32;100.00
19210;BME280;9738;51.654;14.238;2022-12-11T08:41:18;99884.84;;;-2.31;100.00
19210;BME280;9738;51.654;14.238;2022-12-11T08:43:45;99888.41;;;-2.32;100.00
19210;BME280;9738;51.654;14.238;2022-12-11T08:46:12;99887.38;;;-2.30;100.00
19210;BME280;9738;51.654;14.238;2022-12-11T08:48:39;99891.53;;;-2.26;100.00
19210;BME280;9738;51.654;14.238;2022-12-11T08:51:07;99889.75;;;-2.25;100.00
19210;BME280;9738;51.654;14.238;2022-12-11T08:53:33;99888.91;;;-2.26;100.00
19210;BME280;9738;51.654;14.238;2022-12-11T08:56:03;99883.53;;;-2.23;100.00
19210;BME280;9738;51.654;14.238;2022-12-11T08:58:30;99887.66;;;-2.19;100.00
19210;BME280;9738;51.654;14.238;2022-12-11T09:00:56;99890.94;;;-2.15;100.00
19210;BME280;9738;51.654;14.238;2022-12-11T09:03:22;99883.16;;;-2.17;100.00
19210;BME280;9738;51.654;14.238;2022-12-11T09:05:49;99884.78;;;-2.14;100.00
19210;BME280;9738;51.654;14.238;2022-12-11T09:08:15;99885.44;;;-2.10;100.00
19210;BME280;9738;51.654;14.238;2022-12-11T09:10:41;99886.97;;;-2.06;100.00
19210;BME280;9738;51.654;14.238;2022-12-11T09:13:07;99883.50;;;-2.07;100.00
19210;BME280;9738;51.654;14.238;2022-12-11T09:15:33;99882.66;;;-2.07;100.00
19210;BME280;9738;51.654;14.238;2022-12-11T09:17:59;99875.75;;;-2.08;100.00
19210;BME280;9738;51.654;14.238;2022-12-11T09:20:25;99878.47;;;-2.10;100.00
19210;BME280;9738;51.654;14.238;2022-12-11T09:22:51;99873.22;;;-2.10;100.00
19210;BME280;9738;51.654;14.238;2022-12-11T09:25:17;99867.13;;;-2.10;100.00
19210;BME280;9738;51.654;14.238;2022-12-11T09:27:43;99865.38;;;-2.10;100.00
19210;BME280;9738;51.654;14.238;2022-12-11T09:30:09;99861.91;;;-2.10;100.00
19210;BME280;9738;51.654;14.238;2022-12-11T09:32:35;99862.78;;;-2.10;100.00
19210;BME280;9738;51.654;14.238;2022-12-11T09:35:01;99862.81;;;-2.11;100.00
19210;BME280;9738;51.654;14.238;2022-12-11T09:37:27;99863.63;;;-2.09;100.00
19210;BME280;9738;51.654;14.238;2022-12-11T09:39:53;99861.75;;;-2.07;100.00
19210;BME280;9738;51.654;14.238;2022-12-11T09:44:53;99855.66;;;-2.08;100.00
19210;BME280;9738;51.654;14.238;2022-12-11T09:47:40;99855.75;;;-2.09;100.00
19210;BME280;9738;51.654;14.238;2022-12-11T09:52:52;99856.31;;;-2.04;100.00
19210;BME280;9738;51.654;14.238;2022-12-11T09:55:22;99866.97;;;-2.07;100.00
19210;BME280;9738;51.654;14.238;2022-12-11T10:00:52;99852.03;;;-2.05;100.00
19210;BME280;9738;51.654;14.238;2022-12-11T10:03:44;99862.78;;;-2.10;100.00
19210;BME280;9738;51.654;14.238;2022-12-11T10:06:28;99849.75;;;-2.11;100.00
19210;BME280;9738;51.654;14.238;2022-12-11T10:09:06;99849.94;;;-2.14;100.00
19210;BME280;9738;51.654;14.238;2022-12-11T10:14:53;99852.22;;;-2.08;100.00
19210;BME280;9738;51.654;14.238;2022-12-11T10:19:56;99851.44;;;-2.10;100.00
19210;BME280;9738;51.654;14.238;2022-12-11T10:22:26;99847.91;;;-2.09;100.00
19210;BME280;9738;51.654;14.238;2022-12-11T10:24:56;99845.09;;;-2.06;100.00
19210;BME280;9738;51.654;14.238;2022-12-11T10:27:27;99843.19;;;-2.03;100.00
19210;BME280;9738;51.654;14.238;2022-12-11T10:35:41;99837.94;;;-2.03;100.00
19210;BME280;9738;51.654;14.238;2022-12-11T10:38:12;99838.69;;;-2.01;100.00
19210;BME280;9738;51.654;14.238;2022-12-11T10:40:43;99829.91;;;-2.00;100.00
19210;BME280;9738;51.654;14.238;2022-12-11T10:43:09;99828.91;;;-1.97;100.00
19210;BME280;9738;51.654;14.238;2022-12-11T10:45:35;99827.97;;;-1.96;100.00
19210;BME280;9738;51.654;14.238;2022-12-11T10:48:04;99828.53;;;-1.91;100.00
19210;BME280;9738;51.654;14.238;2022-12-11T10:50:30;99823.28;;;-1.91;100.00
19210;BME280;9738;51.654;14.238;2022-12-11T10:52:57;99830.16;;;-1.88;100.00
19210;BME280;9738;51.654;14.238;2022-12-11T10:55:44;99822.94;;;-1.85;100.00
19210;BME280;9738;51.654;14.238;2022-12-11T10:58:16;99820.53;;;-1.88;100.00
19210;BME280;9738;51.654;14.238;2022-12-11T11:00:44;99809.13;;;-1.87;100.00
19210;BME280;9738;51.654;14.238;2022-12-11T11:03:23;99803.03;;;-1.87;100.00
19210;BME280;9738;51.654;14.238;2022-12-11T11:06:02;99800.41;;;-1.87;100.00
19210;BME280;9738;51.654;14.238;2022-12-11T11:08:37;99809.22;;;-1.88;100.00
19210;BME280;9738;51.654;14.238;2022-12-11T11:11:04;99797.22;;;-1.93;100.00
19210;BME280;9738;51.654;14.238;2022-12-11T11:13:30;99797.22;;;-1.93;100.00
19210;BME280;9738;51.654;14.238;2022-12-11T11:16:06;99789.28;;;-1.91;100.00
19210;BME280;9738;51.654;14.238;2022-12-11T11:18:34;99796.03;;;-1.87;100.00
19210;BME280;9738;51.654;14.238;2022-12-11T11:21:01;99788.09;;;-1.85;100.00
19210;BME280;9738;51.654;14.238;2022-12-11T11:23:27;99788.09;;;-1.85;100.00
19210;BME280;9738;51.654;14.238;2022-12-11T11:25:59;99782.00;;;-1.86;100.00
19210;BME280;9738;51.654;14.238;2022-12-11T11:28:29;99784.72;;;-1.87;100.00
19210;BME280;9738;51.654;14.238;2022-12-11T11:30:59;99783.69;;;-1.85;100.00
19210;BME280;9738;51.654;14.238;2022-12-11T11:33:26;99781.16;;;-1.86;100.00
19210;BME280;9738;51.654;14.238;2022-12-11T11:36:01;99778.44;;;-1.85;100.00
19210;BME280;9738;51.654;14.238;2022-12-11T11:38:30;99781.94;;;-1.84;100.00
19210;BME280;9738;51.654;14.238;2022-12-11T11:41:05;99783.63;;;-1.83;100.00
19210;BME280;9738;51.654;14.238;2022-12-11T11:43:52;99778.44;;;-1.85;100.00
19210;BME280;9738;51.654;14.238;2022-12-11T11:46:28;99777.81;;;-1.88;100.00
19210;BME280;9738;51.654;14.238;2022-12-11T11:49:13;99777.06;;;-1.91;100.00
19210;BME280;9738;51.654;14.238;2022-12-11T11:51:50;99770.03;;;-1.90;100.00
19210;BME280;9738;51.654;14.238;2022-12-11T11:54:35;99780.31;;;-1.87;100.00
19210;BME280;9738;51.654;14.238;2022-12-11T11:57:11;99773.22;;;-1.85;100.00
19210;BME280;9738;51.654;14.238;2022-12-11T11:59:44;99774.09;;;-1.84;100.00
19210;BME280;9738;51.654;14.238;2022-12-11T12:02:17;99771.53;;;-1.86;100.00
19210;BME280;9738;51.654;14.238;2022-12-11T12:04:45;99773.41;;;-1.88;100.00
19210;BME280;9738;51.654;14.238;2022-12-11T12:07:36;99769.84;;;-1.87;100.00
19210;BME280;9738;51.654;14.238;2022-12-11T12:10:25;99759.38;;;-1.87;100.00
19210;BME280;9738;51.654;14.238;2022-12-11T12:13:00;99769.13;;;-1.89;100.00
19210;BME280;9738;51.654;14.238;2022-12-11T12:15:43;99768.19;;;-1.88;100.00
19210;BME280;9738;51.654;14.238;2022-12-11T12:21:04;99764.13;;;-1.94;100.00
19210;BME280;9738;51.654;14.238;2022-12-11T12:23:47;99759.00;;;-1.95;100.00
19210;BME280;9738;51.654;14.238;2022-12-11T12:26:27;99760.78;;;-1.96;100.00
19210;BME280;9738;51.654;14.238;2022-12-11T12:29:20;99760.94;;;-1.99;100.00
19210;BME280;9738;51.654;14.238;2022-12-11T12:32:04;99764.22;;;-1.95;100.00
19210;BME280;9738;51.654;14.238;2022-12-11T12:35:05;99760.09;;;-1.99;100.00
19210;BME280;9738;51.654;14.238;2022-12-11T12:37:46;99766.47;;;-2.03;100.00
19210;BME280;9738;51.654;14.238;2022-12-11T12:40:29;99760.28;;;-2.02;100.00
19210;BME280;9738;51.654;14.238;2022-12-11T12:43:21;99756.84;;;-2.03;100.00
19210;BME280;9738;51.654;14.238;2022-12-11T12:46:00;99757.72;;;-2.04;100.00
19210;BME280;9738;51.654;14.238;2022-12-11T12:48:30;99755.22;;;-2.05;100.00
19210;BME280;9738;51.654;14.238;2022-12-11T12:50:57;99761.38;;;-2.06;100.00
19210;BME280;9738;51.654;14.238;2022-12-11T12:53:27;99757.84;;;-2.05;100.00
19210;BME280;9738;51.654;14.238;2022-12-11T12:55:58;99749.13;;;-2.06;100.00
19210;BME280;9738;51.654;14.238;2022-12-11T12:58:39;99750.91;;;-2.06;100.00
19210;BME280;9738;51.654;14.238;2022-12-11T13:01:07;99745.78;;;-2.08;100.00
19210;BME280;9738;51.654;14.238;2022-12-11T13:03:36;99743.16;;;-2.08;100.00
19210;BME280;9738;51.654;14.238;2022-12-11T13:06:08;99751.84;;;-2.07;100.00
19210;BME280;9738;51.654;14.238;2022-12-11T13:08:49;99753.78;;;-2.11;100.00
19210;BME280;9738;51.654;14.238;2022-12-11T13:11:17;99755.75;;;-2.14;100.00
19210;BME280;9738;51.654;14.238;2022-12-11T13:13:48;99752.66;;;-2.21;100.00
19210;BME280;9738;51.654;14.238;2022-12-11T13:16:26;99750.03;;;-2.21;100.00
19210;BME280;9738;51.654;14.238;2022-12-11T13:18:59;99744.97;;;-2.24;100.00
19210;BME280;9738;51.654;14.238;2022-12-11T13:21:35;99750.28;;;-2.26;100.00
19210;BME280;9738;51.654;14.238;2022-12-11T13:26:38;99752.41;;;-2.32;100.00
19210;BME280;9738;51.654;14.238;2022-12-11T13:29:05;99742.78;;;-2.32;100.00
19210;BME280;9738;51.654;14.238;2022-12-11T13:31:36;99751.66;;;-2.34;100.00
19210;BME280;9738;51.654;14.238;2022-12-11T13:34:12;99741.94;;;-2.32;100.00
19210;BME280;9738;51.654;14.238;2022-12-11T13:36:45;99741.84;;;-2.31;100.00
19210;BME280;9738;51.654;14.238;2022-12-11T13:39:22;99742.78;;;-2.32;100.00